createdAt,value
2023-04-01T13:03:54.158Z,60.2248
2023-04-01T13:04:55.780Z,59.8124
2023-04-01T13:05:57.148Z,60.9124
2023-04-01T13:06:58.679Z,60.2973
2023-04-01T13:15:21.828Z,51.2511
2023-04-01T13:16:23.394Z,51.7262
2023-04-01T13:17:24.926Z,52.1455
2023-04-01T13:18:26.435Z,52.4663
2023-04-01T13:19:27.902Z,52.7061
2023-04-01T13:20:29.445Z,52.7819
2023-04-01T13:21:30.990Z,52.8157
2023-04-01T13:22:32.512Z,52.7995
2023-04-01T13:23:33.983Z,52.7318
2023-04-01T13:24:35.780Z,52.6470
2023-04-01T13:25:37.054Z,52.6696
2023-04-01T13:26:38.568Z,52.6864
2023-04-01T13:27:40.130Z,52.6390
2023-04-01T13:28:41.631Z,52.5375
2023-04-01T13:29:43.206Z,52.5044
2023-04-01T13:30:44.691Z,52.5246
2023-04-01T13:31:46.225Z,52.4867
2023-04-01T13:32:47.839Z,52.5198
2023-04-01T13:33:49.214Z,52.5671
2023-04-01T13:34:50.838Z,52.4282
2023-04-01T13:35:52.315Z,52.4049
2023-04-01T13:36:53.827Z,52.4158
2023-04-01T13:37:55.353Z,52.3558
2023-04-01T13:38:56.857Z,52.3491
2023-04-01T13:39:58.374Z,52.3643
2023-04-01T13:41:03.498Z,52.3083
2023-04-01T16:09:08.464Z,52.5402
2023-04-01T16:10:09.962Z,52.4634
2023-04-01T16:11:11.504Z,52.4034
2023-04-01T16:12:13.039Z,52.4316
2023-04-01T16:13:14.552Z,52.4016
2023-04-01T16:14:16.085Z,52.3617
2023-04-01T16:15:17.619Z,52.3560
2023-04-01T16:16:19.239Z,52.4099
2023-04-01T16:17:20.732Z,52.4156
2023-04-01T16:18:22.202Z,52.3923
2023-04-01T16:19:23.857Z,52.3856
2023-04-01T16:20:25.260Z,52.4179
2023-04-01T16:21:26.780Z,52.3712
2023-04-01T16:22:28.322Z,52.4207
2023-04-01T16:23:29.841Z,52.4894
2023-04-01T16:24:31.383Z,52.4548
2023-04-01T16:25:33.056Z,52.5103
2023-04-01T16:26:34.451Z,52.4133
2023-04-01T16:27:36.058Z,52.4061
2023-04-01T16:28:37.622Z,52.4787
2023-04-01T16:29:39.130Z,52.4314
2023-04-01T16:30:40.657Z,52.4169
2023-04-01T16:31:42.103Z,52.4095
2023-04-01T16:32:43.868Z,52.4832
2023-04-01T16:33:45.140Z,52.4591
2023-04-01T16:34:46.682Z,52.4377
2023-04-01T16:35:48.337Z,52.4518
2023-04-01T16:36:49.925Z,52.4461
2023-04-01T16:37:51.287Z,52.3896
2023-04-01T16:38:53.013Z,52.3852
2023-04-01T16:39:54.321Z,52.3822
2023-04-01T16:40:55.858Z,52.3938
2023-04-01T16:41:57.390Z,52.3779
2023-04-01T16:42:58.911Z,52.4093
2023-04-01T16:44:00.434Z,52.4268
2023-04-01T16:45:01.970Z,52.3726
2023-04-01T16:46:03.537Z,52.4445
2023-04-01T16:47:05.073Z,52.3693
2023-04-01T16:48:06.686Z,52.3546
2023-04-01T16:49:08.162Z,52.4136
2023-04-01T16:50:09.596Z,52.3566
2023-04-01T16:51:11.183Z,52.3673
2023-04-01T16:52:12.859Z,52.4092
2023-04-01T16:53:14.361Z,52.5171
2023-04-01T16:54:15.708Z,52.4488
2023-04-01T16:55:17.254Z,52.4928
2023-04-01T16:56:18.784Z,52.5025
2023-04-01T16:57:20.385Z,52.4302
2023-04-01T16:58:21.906Z,52.4031
2023-04-01T16:59:23.596Z,52.3700
2023-04-01T17:00:25.703Z,52.2990
2023-04-01T17:01:28.760Z,52.2706
2023-04-01T17:02:28.017Z,52.3200
2023-04-01T17:03:29.474Z,52.2755
2023-04-01T17:04:31.061Z,52.3502
2023-04-01T17:05:32.534Z,52.5362
2023-04-01T17:06:34.053Z,52.7364
2023-04-01T17:07:35.608Z,53.0229
2023-04-01T17:08:37.152Z,53.3505
2023-04-01T17:09:38.649Z,53.5244
2023-04-01T17:10:40.176Z,53.5430
2023-04-01T17:11:41.795Z,53.8566
2023-04-01T17:12:43.407Z,54.2134
2023-04-01T17:13:44.884Z,54.4090
2023-04-01T17:14:46.670Z,54.2042
2023-04-01T17:15:48.063Z,54.1618
2023-04-01T17:16:49.342Z,53.8786
2023-04-01T17:17:50.956Z,53.6774
2023-04-01T17:18:52.386Z,53.5506
2023-04-01T17:19:53.930Z,53.4573
2023-04-01T17:20:55.492Z,53.4560
2023-04-01T17:21:57.002Z,53.4087
2023-04-01T17:22:58.608Z,53.3545
2023-04-01T17:24:00.063Z,53.3116
2023-04-01T17:25:01.564Z,53.3119
2023-04-01T17:26:03.119Z,53.2918
2023-04-01T17:27:04.657Z,53.2334
2023-04-01T17:28:06.158Z,53.2282
2023-04-01T17:29:07.728Z,53.2102
2023-04-01T17:30:09.207Z,53.2176
2023-04-01T17:31:10.853Z,53.2049
2023-04-01T17:32:12.262Z,53.2459
2023-04-01T17:33:13.826Z,53.2290
2023-04-01T17:34:15.344Z,53.1716
2023-04-01T17:35:16.896Z,53.2013
2023-04-01T17:36:18.381Z,53.2143
2023-04-01T17:37:19.981Z,53.2129
2023-04-01T17:38:21.463Z,53.2118
2023-04-01T17:39:22.954Z,53.2372
2023-04-01T17:40:24.658Z,53.1671
2023-04-01T17:41:26.033Z,53.1885
2023-04-01T17:42:27.533Z,53.1566
2023-04-01T17:43:29.084Z,53.1927
2023-04-01T17:44:30.690Z,53.1974
2023-04-01T17:45:32.231Z,53.2012
2023-04-01T17:46:33.733Z,53.1931
2023-04-01T17:47:35.204Z,53.2554
2023-04-01T17:48:36.784Z,53.2444
2023-04-01T17:49:38.278Z,53.2352
2023-04-01T17:50:39.791Z,53.2872
2023-04-01T17:51:41.462Z,53.2980
2023-04-01T17:52:42.803Z,53.2918
2023-04-01T17:53:44.349Z,53.3050
2023-04-01T17:54:45.873Z,53.3257
2023-04-01T17:55:47.430Z,53.3003
2023-04-01T17:56:48.998Z,53.3743
2023-04-01T17:57:50.450Z,53.3818
2023-04-01T17:58:52.018Z,53.3320
2023-04-01T17:59:53.548Z,53.3752
2023-04-01T18:00:55.028Z,53.5331
2023-04-01T18:01:56.593Z,53.7318
2023-04-01T18:02:58.131Z,54.6109
2023-04-01T18:04:00.150Z,54.4584
2023-04-01T18:05:01.166Z,54.2728
2023-04-01T18:06:02.723Z,54.2553
2023-04-01T18:07:04.204Z,53.9965
2023-04-01T18:08:05.703Z,53.9121
2023-04-01T18:09:07.254Z,53.7821
2023-04-01T18:10:08.825Z,53.7587
2023-04-01T18:11:10.305Z,53.7189
2023-04-01T18:12:11.804Z,53.6724
2023-04-01T18:13:13.341Z,53.6270
2023-04-01T18:14:14.943Z,53.5991
2023-04-01T18:15:16.421Z,53.5648
2023-04-01T18:16:18.134Z,53.5514
2023-04-01T18:17:19.515Z,53.5136
2023-04-01T18:18:20.984Z,53.4494
2023-04-01T18:19:22.527Z,53.4336
2023-04-01T18:20:24.028Z,53.4099
2023-04-01T18:21:25.582Z,53.4207
2023-04-01T18:22:27.092Z,53.3601
2023-04-01T18:23:28.776Z,53.3569
2023-04-01T18:24:30.162Z,53.3813
2023-04-01T18:25:31.664Z,53.2962
2023-04-01T18:26:33.237Z,53.2475
2023-04-01T18:27:34.765Z,53.2432
2023-04-01T18:28:36.235Z,53.2000
2023-04-01T18:29:37.856Z,53.2009
2023-04-01T18:30:39.321Z,53.1310
2023-04-01T18:31:40.899Z,53.1097
2023-04-01T18:32:42.497Z,53.1190
2023-04-01T18:33:43.958Z,53.1260
2023-04-01T18:34:45.440Z,53.1722
2023-04-01T18:35:47.051Z,53.1519
2023-04-01T18:36:49.437Z,53.1429
